createdAt,value
2019-03-18T00:00:23.356Z,100376.91
2019-03-18T00:02:51.800Z,100378.27
2019-03-18T00:05:20.229Z,100376.91
2019-03-18T00:07:48.648Z,100384.34
2019-03-18T00:10:17.094Z,100379.92
2019-03-18T00:12:45.489Z,100379.20
2019-03-18T00:15:13.920Z,100378.19
2019-03-18T00:17:42.332Z,100375.13
2019-03-18T00:20:11.307Z,100370.67
2019-03-18T00:22:39.742Z,100373.39
2019-03-18T00:25:11.229Z,100367.27
2019-03-18T00:27:39.628Z,100367.62
2019-03-18T00:30:11.106Z,100370.83
2019-03-18T00:32:39.523Z,100370.83
2019-03-18T00:35:08.097Z,100378.48
2019-03-18T00:37:36.526Z,100377.99
2019-03-18T00:40:08.371Z,100378.48
2019-03-18T00:42:36.854Z,100379.50
2019-03-18T00:45:14.596Z,100384.56
2019-03-18T00:47:37.387Z,100384.22
2019-03-18T00:50:14.299Z,100383.73
2019-03-18T00:52:42.808Z,100391.35
2019-03-18T00:55:11.355Z,100398.44
2019-03-18T00:57:39.853Z,100397.08
2019-03-18T01:00:13.238Z,100402.52
2019-03-18T01:02:41.706Z,100402.89
2019-03-18T01:05:10.463Z,100407.95
2019-03-18T01:07:38.952Z,100404.40
2019-03-18T01:10:10.480Z,100409.83
2019-03-18T01:12:38.896Z,100411.05
2019-03-18T01:15:09.268Z,100407.95
2019-03-18T01:17:37.754Z,100409.83
2019-03-18T01:20:08.125Z,100404.02
2019-03-18T01:22:36.596Z,100408.97
2019-03-18T01:25:06.782Z,100414.05
2019-03-18T01:27:35.224Z,100406.89
2019-03-18T01:30:04.944Z,100412.70
2019-03-18T01:32:33.428Z,100404.17
2019-03-18T01:35:01.831Z,100399.11
2019-03-18T01:37:30.278Z,100401.30
2019-03-18T01:39:58.679Z,100403.19
2019-03-18T01:42:27.117Z,100404.55
2019-03-18T01:44:55.534Z,100397.38
2019-03-18T01:47:23.995Z,100397.38
2019-03-18T01:49:52.410Z,100402.32
2019-03-18T01:52:20.818Z,100408.24
2019-03-18T01:54:49.244Z,100404.70
2019-03-18T01:57:17.648Z,100404.17
2019-03-18T01:59:46.096Z,100401.45
2019-03-18T02:02:14.534Z,100401.98
2019-03-18T02:04:42.970Z,100410.27
2019-03-18T02:07:11.360Z,100411.98
2019-03-18T02:09:39.828Z,100403.48
2019-03-18T02:12:08.230Z,100406.54
2019-03-18T02:14:36.668Z,100403.48
2019-03-18T02:17:05.066Z,100405.33
2019-03-18T02:19:33.516Z,100419.41
2019-03-18T02:22:01.932Z,100419.41
2019-03-18T02:24:30.335Z,100419.41
2019-03-18T02:26:58.781Z,100417.70
2019-03-18T02:29:27.184Z,100407.85
2019-03-18T02:31:55.636Z,100411.06
2019-03-18T02:34:24.243Z,100420.42
2019-03-18T02:36:52.665Z,100419.70
2019-03-18T02:39:21.076Z,100421.06
2019-03-18T02:41:49.508Z,100415.77
2019-03-18T02:44:18.029Z,100416.15
2019-03-18T02:46:46.434Z,100409.47
2019-03-18T02:49:14.864Z,100405.39
2019-03-18T02:51:43.293Z,100403.20
2019-03-18T02:54:11.741Z,100401.61
2019-03-18T02:56:40.198Z,100401.99
2019-03-18T02:59:08.631Z,100414.70
2019-03-18T03:01:37.083Z,100427.27
2019-03-18T03:04:05.502Z,100427.08
2019-03-18T03:06:33.929Z,100430.13
2019-03-18T03:09:02.418Z,100429.30
2019-03-18T03:11:34.074Z,100428.09
2019-03-18T03:14:01.027Z,100423.64
2019-03-18T03:16:29.433Z,100423.29
2019-03-18T03:18:57.871Z,100425.86
2019-03-18T03:21:26.264Z,100429.94
2019-03-18T03:23:54.679Z,100430.42
2019-03-18T03:26:23.130Z,100430.42
2019-03-18T03:28:51.569Z,100433.00
2019-03-18T03:31:19.995Z,100427.08
2019-03-18T03:33:48.444Z,100429.45
2019-03-18T03:36:16.847Z,100431.15
2019-03-18T03:38:45.269Z,100428.92
2019-03-18T03:41:17.748Z,100428.78
2019-03-18T03:43:43.903Z,100435.56
2019-03-18T03:46:12.290Z,100441.87
2019-03-18T03:48:40.751Z,100446.43
2019-03-18T03:51:09.166Z,100433.37
2019-03-18T03:53:37.557Z,100444.59
2019-03-18T03:56:05.995Z,100442.73
2019-03-18T03:58:34.580Z,100448.17
2019-03-18T04:01:02.980Z,100447.16
2019-03-18T04:03:38.216Z,100450.16
2019-03-18T04:06:01.580Z,100450.51
2019-03-18T04:08:30.069Z,100459.18
2019-03-18T04:10:58.550Z,100459.18
2019-03-18T04:13:26.981Z,100460.16
2019-03-18T04:15:55.395Z,100461.75
2019-03-18T04:18:23.836Z,100462.88
2019-03-18T04:20:52.361Z,100467.81
2019-03-18T04:23:20.804Z,100475.48
2019-03-18T04:25:49.313Z,100476.31
2019-03-18T04:28:17.747Z,100474.95
2019-03-18T04:30:46.143Z,100474.95
2019-03-18T04:33:14.570Z,100482.13
2019-03-18T04:35:42.983Z,100486.69
2019-03-18T04:38:11.420Z,100485.33
2019-03-18T04:40:39.859Z,100483.48
2019-03-18T04:43:08.309Z,100492.46
2019-03-18T04:45:36.723Z,100497.06
2019-03-18T04:48:05.137Z,100498.42
2019-03-18T04:50:33.570Z,100508.62
2019-03-18T04:53:01.991Z,100501.48
2019-03-18T04:55:30.431Z,100501.48
2019-03-18T04:57:58.852Z,100500.61
2019-03-18T05:00:27.301Z,100496.05
2019-03-18T05:02:55.719Z,100489.26
2019-03-18T05:05:24.190Z,100487.41
2019-03-18T05:07:52.625Z,100491.97
2019-03-18T05:10:21.033Z,100500.12
2019-03-18T05:12:49.445Z,100506.77
2019-03-18T05:15:17.889Z,100507.64
2019-03-18T05:17:46.314Z,100505.41
2019-03-18T05:20:14.727Z,100513.07
2019-03-18T05:22:43.163Z,100521.56
2019-03-18T05:25:11.574Z,100524.80
2019-03-18T05:27:40.011Z,100522.92
2019-03-18T05:30:13.226Z,100530.09
2019-03-18T05:32:41.650Z,100533.16
2019-03-18T05:35:10.273Z,100534.52
2019-03-18T05:37:38.681Z,100538.94
2019-03-18T05:40:08.253Z,100539.95
2019-03-18T05:42:36.649Z,100546.25
2019-03-18T05:45:07.805Z,100544.02
2019-03-18T05:47:39.687Z,100547.47
2019-03-18T05:50:08.603Z,100548.44
2019-03-18T05:52:37.025Z,100556.25
2019-03-18T05:55:06.583Z,100559.31
2019-03-18T05:57:35.028Z,100563.77
2019-03-18T06:00:05.101Z,100563.24
2019-03-18T06:02:33.525Z,100562.41
2019-03-18T06:05:01.970Z,100570.91
2019-03-18T06:07:30.410Z,100582.12
2019-03-18T06:09:58.863Z,100576.69
2019-03-18T06:12:27.283Z,100583.86
2019-03-18T06:14:55.689Z,100579.78
2019-03-18T06:17:24.216Z,100589.64
2019-03-18T06:19:52.658Z,100588.63
2019-03-18T06:22:21.112Z,100597.30
2019-03-18T06:24:49.563Z,100598.86
2019-03-18T06:27:17.973Z,100600.22
2019-03-18T06:29:46.414Z,100601.58
2019-03-18T06:32:14.864Z,100606.52
2019-03-18T06:34:43.272Z,100620.31
2019-03-18T06:37:11.704Z,100626.33
2019-03-18T06:39:40.112Z,100622.55
2019-03-18T06:42:08.568Z,100626.05
2019-03-18T06:44:36.980Z,100626.45
2019-03-18T06:47:05.389Z,100643.92
2019-03-18T06:49:33.839Z,100637.42
2019-03-18T06:52:02.282Z,100643.16
2019-03-18T06:54:30.704Z,100642.20
2019-03-18T06:56:59.132Z,100642.97
2019-03-18T06:59:27.578Z,100643.78
2019-03-18T07:01:55.988Z,100644.94
2019-03-18T07:04:24.522Z,100644.20
2019-03-18T07:06:52.942Z,100647.20
2019-03-18T07:09:21.346Z,100651.71
2019-03-18T07:11:49.786Z,100656.56
2019-03-18T07:14:18.193Z,100661.91
2019-03-18T07:16:46.625Z,100665.77
2019-03-18T07:19:15.049Z,100664.31
2019-03-18T07:21:43.493Z,100670.17
2019-03-18T07:24:11.893Z,100671.58
2019-03-18T07:26:40.320Z,100683.61
2019-03-18T07:29:08.751Z,100677.91
2019-03-18T07:31:37.200Z,100683.14
2019-03-18T07:34:05.682Z,100684.27
2019-03-18T07:36:34.093Z,100697.29
2019-03-18T07:39:02.546Z,100693.62
2019-03-18T07:41:30.952Z,100695.28
2019-03-18T07:43:59.454Z,100703.07
2019-03-18T07:46:27.868Z,100704.51
2019-03-18T07:48:56.292Z,100709.72
2019-03-18T07:51:24.696Z,100710.31
2019-03-18T07:53:53.127Z,100710.02
2019-03-18T07:56:21.601Z,100712.58
2019-03-18T07:58:50.076Z,100713.95
2019-03-18T08:01:18.523Z,100716.83
2019-03-18T08:03:46.944Z,100723.80
2019-03-18T08:06:15.362Z,100721.37
2019-03-18T08:08:43.809Z,100725.77
2019-03-18T08:11:12.230Z,100723.69
2019-03-18T08:13:40.682Z,100730.16
2019-03-18T08:16:09.084Z,100734.59
2019-03-18T08:18:43.213Z,100732.23
2019-03-18T08:21:07.667Z,100740.76
2019-03-18T08:23:36.088Z,100737.88
2019-03-18T08:26:04.539Z,100750.34
2019-03-18T08:28:32.953Z,100748.97
2019-03-18T08:31:01.392Z,100748.73
2019-03-18T08:33:29.810Z,100754.08
2019-03-18T08:35:58.234Z,100745.80
2019-03-18T08:38:26.664Z,100746.89
2019-03-18T08:40:55.283Z,100744.61
2019-03-18T08:43:23.760Z,100747.37
2019-03-18T08:45:52.255Z,100747.59
2019-03-18T08:48:20.676Z,100742.31
2019-03-18T08:50:49.086Z,100737.58
2019-03-18T08:53:17.522Z,100748.33
2019-03-18T08:55:46.000Z,100740.48
2019-03-18T08:58:14.427Z,100742.91
2019-03-18T09:00:42.863Z,100743.48
2019-03-18T09:03:11.298Z,100749.25
2019-03-18T09:05:39.806Z,100741.24
2019-03-18T09:08:08.254Z,100754.39
2019-03-18T09:10:36.666Z,100745.99
2019-03-18T09:13:05.147Z,100752.41
2019-03-18T09:15:33.577Z,100756.01
2019-03-18T09:18:01.988Z,100759.23
2019-03-18T09:20:30.422Z,100765.09
2019-03-18T09:23:01.370Z,100771.59
2019-03-18T09:25:29.003Z,100776.56
2019-03-18T09:27:57.438Z,100779.47
2019-03-18T09:30:25.921Z,100777.80
2019-03-18T09:32:54.342Z,100785.33
2019-03-18T09:35:22.774Z,100789.42
2019-03-18T09:37:51.201Z,100792.80
2019-03-18T09:40:19.713Z,100793.98
2019-03-18T09:42:48.130Z,100802.98
2019-03-18T09:45:17.699Z,100805.87
2019-03-18T09:47:46.173Z,100804.66
2019-03-18T09:50:15.204Z,100811.14
2019-03-18T09:52:43.664Z,100808.72
2019-03-18T09:55:12.159Z,100808.01
2019-03-18T09:57:40.563Z,100807.10
2019-03-18T10:00:14.124Z,100808.59
2019-03-18T10:02:42.545Z,100817.58
2019-03-18T10:05:11.112Z,100823.34
2019-03-18T10:07:39.582Z,100817.82
2019-03-18T10:10:10.105Z,100822.03
2019-03-18T10:12:38.558Z,100820.59
2019-03-18T10:15:12.771Z,100820.03
2019-03-18T10:17:41.219Z,100822.53
2019-03-18T10:20:10.204Z,100821.48
2019-03-18T10:22:38.642Z,100832.69
2019-03-18T10:25:08.218Z,100826.13
2019-03-18T10:27:37.836Z,100829.66
2019-03-18T10:30:15.110Z,100833.17
2019-03-18T10:32:43.782Z,100831.28
2019-03-18T10:35:12.452Z,100834.45
2019-03-18T10:37:40.877Z,100832.52
2019-03-18T10:40:13.395Z,100839.48
2019-03-18T10:42:41.993Z,100839.98
2019-03-18T10:45:14.262Z,100835.39
2019-03-18T10:47:42.697Z,100839.67
2019-03-18T10:50:18.228Z,100849.07
2019-03-18T10:52:46.669Z,100841.42
2019-03-18T10:55:15.182Z,100847.21
2019-03-18T10:57:43.599Z,100839.38
2019-03-18T11:00:16.405Z,100840.37
2019-03-18T11:02:45.552Z,100847.37
2019-03-18T11:05:14.828Z,100843.65
2019-03-18T11:07:43.410Z,100839.79
2019-03-18T11:10:13.595Z,100837.98
2019-03-18T11:12:42.026Z,100847.37
2019-03-18T11:15:17.219Z,100852.23
2019-03-18T11:17:45.674Z,100854.66
2019-03-18T11:20:15.521Z,100853.05
2019-03-18T11:22:44.353Z,100851.03
2019-03-18T11:25:14.970Z,100855.77
2019-03-18T11:27:43.396Z,100850.32
2019-03-18T11:30:16.561Z,100845.35
2019-03-18T11:32:44.965Z,100841.47
2019-03-18T11:35:13.519Z,100841.14
2019-03-18T11:37:42.327Z,100834.47
2019-03-18T11:40:13.779Z,100831.07
2019-03-18T11:42:42.193Z,100830.80
2019-03-18T11:45:12.859Z,100827.78
2019-03-18T11:47:41.282Z,100828.20
2019-03-18T11:50:12.737Z,100831.47
2019-03-18T11:52:41.292Z,100827.03
2019-03-18T11:55:17.415Z,100817.66
2019-03-18T11:57:45.883Z,100815.84
2019-03-18T12:00:22.270Z,100812.58
2019-03-18T12:02:50.718Z,100809.11
2019-03-18T12:05:28.951Z,100808.70
2019-03-18T12:07:57.396Z,100808.64
2019-03-18T12:10:26.261Z,100802.13
2019-03-18T12:12:54.914Z,100801.91
2019-03-18T12:15:27.353Z,100794.66
2019-03-18T12:20:25.265Z,100802.54
2019-03-18T12:22:53.448Z,100801.77
2019-03-18T12:25:21.840Z,100805.55
2019-03-18T12:27:50.359Z,100810.73
2019-03-18T12:30:23.329Z,100811.62
2019-03-18T12:32:51.862Z,100805.42
2019-03-18T12:35:20.517Z,100799.72
2019-03-18T12:37:49.172Z,100799.43
2019-03-18T12:40:18.277Z,100797.44
2019-03-18T12:42:46.752Z,100792.38
2019-03-18T12:45:16.429Z,100791.03
2019-03-18T12:47:44.882Z,100786.77
2019-03-18T12:50:16.328Z,100780.13
2019-03-18T12:52:44.829Z,100788.30
2019-03-18T12:55:13.404Z,100785.12
2019-03-18T12:57:41.882Z,100775.11
2019-03-18T13:00:21.428Z,100781.28
2019-03-18T13:02:50.080Z,100780.28
2019-03-18T13:05:18.894Z,100786.31
2019-03-18T13:07:47.497Z,100776.63
2019-03-18T13:10:21.421Z,100782.14
2019-03-18T13:12:50.429Z,100778.06
2019-03-18T13:15:20.118Z,100777.38
2019-03-18T13:17:48.543Z,100776.68
2019-03-18T13:20:18.077Z,100772.23
2019-03-18T13:22:46.517Z,100776.36
2019-03-18T13:25:15.067Z,100764.34
2019-03-18T13:27:43.511Z,100768.72
2019-03-18T13:30:19.896Z,100772.13
2019-03-18T13:32:48.326Z,100771.46
2019-03-18T13:35:17.095Z,100761.16
2019-03-18T13:37:45.617Z,100768.67
2019-03-18T13:40:17.893Z,100766.44
2019-03-18T13:42:46.478Z,100765.53
2019-03-18T13:45:21.834Z,100759.52
2019-03-18T13:47:50.257Z,100766.16
2019-03-18T13:50:23.200Z,100763.25
2019-03-18T13:52:51.643Z,100767.48
2019-03-18T13:55:20.271Z,100765.06
2019-03-18T13:57:48.716Z,100764.48
2019-03-18T14:00:19.260Z,100782.74
2019-03-18T14:02:47.864Z,100799.92
2019-03-18T14:05:16.345Z,100829.80
2019-03-18T14:07:44.963Z,100817.06
2019-03-18T14:10:18.116Z,100820.59
2019-03-18T14:12:46.521Z,100811.89
2019-03-18T14:15:25.443Z,100823.06
2019-03-18T14:17:53.929Z,100827.42
2019-03-18T14:20:23.893Z,100820.52
2019-03-18T14:22:52.347Z,100833.94
2019-03-18T14:25:20.753Z,100835.56
2019-03-18T14:27:49.271Z,100839.63
2019-03-18T14:30:22.388Z,100848.47
2019-03-18T14:32:50.816Z,100848.13
2019-03-18T14:35:21.255Z,100843.16
2019-03-18T14:37:49.395Z,100843.87
2019-03-18T14:40:22.068Z,100839.23
2019-03-18T14:42:50.583Z,100839.69
2019-03-18T14:45:20.355Z,100829.09
2019-03-18T14:47:48.775Z,100830.77
2019-03-18T14:50:18.032Z,100832.06
2019-03-18T14:52:46.739Z,100831.02
2019-03-18T14:55:18.537Z,100824.16
2019-03-18T14:57:46.980Z,100820.37
2019-03-18T15:00:17.727Z,100820.69
2019-03-18T15:02:46.161Z,100819.97
2019-03-18T15:05:15.707Z,100818.92
2019-03-18T15:07:44.125Z,100822.67
2019-03-18T15:10:20.843Z,100818.89
2019-03-18T15:12:49.244Z,100819.20
2019-03-18T15:15:19.551Z,100806.85
2019-03-18T15:17:48.109Z,100809.89
2019-03-18T15:20:18.246Z,100811.56
2019-03-18T15:22:46.706Z,100810.50
2019-03-18T15:25:23.918Z,100818.99
2019-03-18T15:27:52.368Z,100825.62
2019-03-18T15:30:21.327Z,100839.56
2019-03-18T15:32:49.777Z,100841.20
2019-03-18T15:35:18.579Z,100845.44
2019-03-18T15:37:47.157Z,100838.89
2019-03-18T15:40:20.682Z,100841.92
2019-03-18T15:42:49.120Z,100843.59
2019-03-18T15:45:21.287Z,100844.77
2019-03-18T15:47:49.858Z,100848.14
2019-03-18T15:50:20.394Z,100849.30
2019-03-18T15:52:48.831Z,100877.22
2019-03-18T15:55:17.253Z,100889.78
2019-03-18T15:57:45.688Z,100900.98
2019-03-18T16:00:28.913Z,100896.17
2019-03-18T16:02:57.409Z,100886.78
2019-03-18T16:05:25.850Z,100894.27
2019-03-18T16:07:54.338Z,100889.46
2019-03-18T16:10:22.903Z,100889.61
2019-03-18T16:12:51.369Z,100888.20
2019-03-18T16:15:19.896Z,100884.75
2019-03-18T16:17:48.330Z,100891.56
2019-03-18T16:20:22.152Z,100898.88
2019-03-18T16:22:50.598Z,100892.93
2019-03-18T16:25:19.086Z,100884.37
2019-03-18T16:27:47.520Z,100890.50
2019-03-18T16:30:22.618Z,100898.30
2019-03-18T16:32:51.267Z,100895.58
2019-03-18T16:35:19.701Z,100899.95
2019-03-18T16:37:49.002Z,100903.35
2019-03-18T16:40:21.516Z,100910.80
2019-03-18T16:42:49.945Z,100912.46
2019-03-18T16:45:19.528Z,100922.64
2019-03-18T16:47:47.998Z,100921.56
2019-03-18T16:50:30.483Z,100926.81
2019-03-18T16:52:59.032Z,100931.54
2019-03-18T16:55:27.481Z,100929.98
2019-03-18T16:57:55.924Z,100925.17
2019-03-18T17:00:25.686Z,100919.00
2019-03-18T17:02:54.100Z,100911.98
2019-03-18T17:05:22.560Z,100913.00
2019-03-18T17:07:53.952Z,100917.87
2019-03-18T17:10:21.155Z,100927.12
2019-03-18T17:12:49.584Z,100929.02
2019-03-18T17:15:22.604Z,100921.63
2019-03-18T17:17:51.045Z,100926.20
2019-03-18T17:20:19.462Z,100931.80
2019-03-18T17:22:49.807Z,100927.86
2019-03-18T17:25:23.029Z,100945.21
2019-03-18T17:27:51.458Z,100953.17
2019-03-18T17:30:20.631Z,100955.52
2019-03-18T17:32:49.314Z,100956.53
2019-03-18T17:35:18.637Z,100958.04
2019-03-18T17:37:47.066Z,100957.31
2019-03-18T17:40:16.603Z,100958.81
2019-03-18T17:42:45.027Z,100968.48
2019-03-18T17:45:18.587Z,100967.76
2019-03-18T17:47:47.006Z,100984.09
2019-03-18T17:50:17.944Z,100981.38
2019-03-18T17:52:46.402Z,100987.83
2019-03-18T17:55:14.818Z,100994.78
2019-03-18T17:57:43.264Z,100992.20
2019-03-18T18:00:16.015Z,101000.02
2019-03-18T18:02:44.510Z,101004.24
2019-03-18T18:05:13.009Z,101002.02
2019-03-18T18:07:41.457Z,101002.16
2019-03-18T18:10:11.291Z,101009.97
2019-03-18T18:12:39.724Z,101014.16
2019-03-18T18:15:10.117Z,101012.94
2019-03-18T18:17:38.599Z,101017.69
2019-03-18T18:20:12.185Z,101019.54
2019-03-18T18:22:41.135Z,101014.73
2019-03-18T18:25:11.161Z,101019.82
2019-03-18T18:27:39.544Z,101026.27
2019-03-18T18:30:14.380Z,101034.06
2019-03-18T18:32:42.866Z,101034.34
2019-03-18T18:35:12.116Z,101044.73
2019-03-18T18:37:40.540Z,101040.80
2019-03-18T18:40:14.560Z,101048.61
2019-03-18T18:42:42.991Z,101048.23
2019-03-18T18:45:12.724Z,101053.80
2019-03-18T18:47:41.236Z,101060.27
2019-03-18T18:50:11.910Z,101062.11
2019-03-18T18:52:40.346Z,101064.63
2019-03-18T18:55:12.694Z,101061.38
2019-03-18T18:57:41.096Z,101067.83
2019-03-18T19:00:21.360Z,101066.12
2019-03-18T19:02:49.862Z,101071.56
2019-03-18T19:05:19.034Z,101077.63
2019-03-18T19:07:47.473Z,101083.08
2019-03-18T19:10:20.980Z,101088.03
2019-03-18T19:12:49.750Z,101089.88
2019-03-18T19:15:25.924Z,101098.05
2019-03-18T19:17:54.362Z,101117.58
2019-03-18T19:20:22.778Z,101114.02
2019-03-18T19:22:51.214Z,101114.16
2019-03-18T19:25:19.902Z,101117.36
2019-03-18T19:27:48.341Z,101122.81
2019-03-18T19:30:21.157Z,101130.62
2019-03-18T19:32:49.660Z,101139.76
2019-03-18T19:35:18.139Z,101134.31
2019-03-18T19:37:46.579Z,101138.05
2019-03-18T19:40:25.093Z,101145.86
2019-03-18T19:42:53.516Z,101151.66
2019-03-18T19:45:21.925Z,101137.70
2019-03-18T19:47:53.041Z,101145.47
2019-03-18T19:50:31.979Z,101151.78
2019-03-18T19:53:00.417Z,101149.55
2019-03-18T19:55:28.830Z,101148.72
2019-03-18T19:57:57.292Z,101156.88
2019-03-18T20:00:27.921Z,101154.51
2019-03-18T20:02:56.336Z,101150.08
2019-03-18T20:05:24.749Z,101155.00
2019-03-18T20:07:53.189Z,101155.13
2019-03-18T20:10:22.436Z,101161.94
2019-03-18T20:12:50.944Z,101169.26
2019-03-18T20:15:20.092Z,101162.94
2019-03-18T20:17:48.701Z,101167.38
2019-03-18T20:20:21.860Z,101165.53
2019-03-18T20:22:50.258Z,101175.54
2019-03-18T20:25:18.800Z,101171.59
2019-03-18T20:27:47.188Z,101172.47
2019-03-18T20:30:17.157Z,101177.03
2019-03-18T20:32:45.598Z,101168.87
2019-03-18T20:35:15.885Z,101174.31
2019-03-18T20:37:44.350Z,101178.39
2019-03-18T20:40:14.488Z,101178.05
2019-03-18T20:42:42.992Z,101175.32
2019-03-18T20:45:16.476Z,101175.32
2019-03-18T20:47:44.883Z,101178.53
2019-03-18T20:50:15.471Z,101172.59
2019-03-18T20:52:43.900Z,101175.94
2019-03-18T20:55:13.262Z,101184.45
2019-03-18T20:57:41.704Z,101194.98
2019-03-18T21:00:18.215Z,101208.95
2019-03-18T21:02:46.640Z,101199.07
2019-03-18T21:05:15.208Z,101204.86
2019-03-18T21:07:43.646Z,101203.50
2019-03-18T21:10:16.514Z,101206.75
2019-03-18T21:12:45.127Z,101209.08
2019-03-18T21:15:17.499Z,101212.19
2019-03-18T21:17:46.260Z,101211.31
2019-03-18T21:20:17.716Z,101213.03
2019-03-18T21:22:46.182Z,101214.03
2019-03-18T21:25:14.717Z,101209.47
2019-03-18T21:27:43.308Z,101209.47
2019-03-18T21:30:14.191Z,101217.77
2019-03-18T21:32:42.610Z,101217.77
2019-03-18T21:35:11.296Z,101219.13
2019-03-18T21:37:39.806Z,101219.13
2019-03-18T21:40:13.815Z,101223.55
2019-03-18T21:42:42.265Z,101231.36
2019-03-18T21:45:17.934Z,101230.98
2019-03-18T21:47:46.400Z,101230.98
2019-03-18T21:50:16.129Z,101224.70
2019-03-18T21:52:44.617Z,101235.06
2019-03-18T21:55:13.953Z,101234.70
2019-03-18T21:57:42.469Z,101229.27
2019-03-18T22:00:19.734Z,101233.48
2019-03-18T22:02:48.249Z,101230.41
2019-03-18T22:05:16.712Z,101230.89
2019-03-18T22:07:46.170Z,101233.61
2019-03-18T22:10:18.975Z,101237.69
2019-03-18T22:12:47.759Z,101240.06
2019-03-18T22:15:16.921Z,101235.59
2019-03-18T22:17:45.354Z,101239.67
2019-03-18T22:20:18.809Z,101235.98
2019-03-18T22:22:47.217Z,101244.14
2019-03-18T22:25:16.133Z,101254.50
2019-03-18T22:27:44.709Z,101255.99
2019-03-18T22:30:17.290Z,101251.91
2019-03-18T22:32:45.710Z,101253.28
2019-03-18T22:35:14.306Z,101250.94
2019-03-18T22:37:42.738Z,101249.58
2019-03-18T22:40:15.181Z,101246.86
2019-03-18T22:42:43.957Z,101243.75
2019-03-18T22:45:16.421Z,101247.48
2019-03-18T22:47:44.849Z,101251.08
2019-03-18T22:50:14.413Z,101248.97
2019-03-18T22:52:42.848Z,101257.00
2019-03-18T22:55:12.395Z,101261.95
2019-03-18T22:57:41.333Z,101264.81
2019-03-18T23:00:25.877Z,101259.37
2019-03-18T23:02:54.587Z,101261.22
2019-03-18T23:05:23.350Z,101262.09
2019-03-18T23:07:51.791Z,101265.30
2019-03-18T23:10:20.289Z,101270.73
2019-03-18T23:12:48.695Z,101274.81
2019-03-18T23:15:17.173Z,101270.38
2019-03-18T23:17:45.583Z,101263.58
2019-03-18T23:20:14.153Z,101265.07
2019-03-18T23:22:42.600Z,101268.14
2019-03-18T23:25:11.016Z,101266.78
2019-03-18T23:27:39.459Z,101272.23
2019-03-18T23:30:14.627Z,101269.16
2019-03-18T23:32:43.053Z,101270.13
2019-03-18T23:35:12.042Z,101277.19
2019-03-18T23:37:40.484Z,101282.23
2019-03-18T23:40:11.284Z,101280.39
2019-03-18T23:42:39.757Z,101281.75
2019-03-18T23:45:09.623Z,101274.08
2019-03-18T23:47:38.041Z,101274.72
2019-03-18T23:50:09.494Z,101280.87
2019-03-18T23:52:37.911Z,101284.95
2019-03-18T23:55:18.391Z,101283.59
2019-03-18T23:57:38.126Z,101287.19
